広州 の空港の天気 - METARとTAF

広州白雲国際空港 ( ZGGG / CAN ) - 中国 広東省広州市
飛行場実況気象(Metar)
観測時間02/06 03:30 CST (02/05 19:30 UTC)
風向・風速不定 1m/s
視程10km以上
天気現象
全天の4割程度の雲 雲底高度 300m
全天を覆う雲 雲底高度 910m
気温15℃
湿度100%
気圧1015hPa
METARZGGG 051930Z VRB01MPS 9999 SCT010 OVC030 15/15 Q1015 NOSIG
過去の天気等 Google飛行場航空写真 Wunderground天気予報

過去48時間のMETAR

飛行場予報(TAF)
発表時間: 2/05 23:12 CST (2/05 15:12 UTC)
予報対象時間: 6日2時 CST ~ 7日2時 CST
風向・風速北東 3m/s
視程6000m
全天の4割程度の雲 雲底高度 340m
全天の8割程度の雲 雲底高度 1220m
TAF ZGGG 051512Z 0518/0618 05003MPS 6000 SCT011 BKN040 TX22/0607Z TN14/0522Z